Nearby METAR Reports

 

KSJC - San Jose, California, USA
Distance from station: NO 14km
Uppdaterad: 2023-02-05 03:53
Övervägande molnigt
Övervägande molnigt
 Vind från SSO
Vind: SSO 22 km/h, Vindby: 41 km/h
Temperatur: 14°C
Daggpunkt: 10°C
Luftfuktighet: 77%
Barometer: 1016.9 hPa
Clouds: Övervägande molnigt
Visibility: 16 km
Cloud details: Few Clouds 975 m
Övervägande molnigt 4267 m
2023/02/05 02:53 KSJC 050253Z 16012G22KT 10SM FEW032 BKN140 14/10 A3003 RMK AO2 PK WND 19028/0215 SLP167 60000 T01440100 53011
KNUQ - Moffett Nas/Mtn, California, USA
Distance from station: N 14km
Uppdaterad: 2023-02-05 04:35
Övervägande molnigt
Övervägande molnigt
 Vind från SSO
Vind: SSO 7 km/h
Temperatur: 14°C
Daggpunkt: 10°C
Luftfuktighet: 77%
Barometer: 1016.3 hPa
Clouds: Övervägande molnigt
Visibility: 16 km
Cloud details: Few Clouds 640 m
Delvis molnigt 1036 m
Övervägande molnigt 1433 m
2023/02/05 03:35 KNUQ 050335Z AUTO 16004KT 10SM FEW021 SCT034 BKN047 14/10 A3001 RMK AO2
 
KPAO - Palo Alto, California, USA
Distance from station: NNV 23km
Uppdaterad: 2023-02-05 04:47
Övervägande molnigt
Övervägande molnigt
 Vind från SSO
Vind: SSO 17 km/h
Temperatur: 13°C
Daggpunkt: 11°C
Luftfuktighet: 88%
Barometer: 1015.9 hPa
Clouds: Övervägande molnigt
Visibility: 13 km
Cloud details: Övervägande molnigt 579 m
2023/02/05 03:47 KPAO 050347Z 16009KT 8SM BKN019 13/11 A3000 RA
KRHV - San Jose/Reid, California, USA
Distance from station: ONO 19km
Uppdaterad: 2023-02-05 04:47
Övervägande molnigt
Övervägande molnigt
 Vind från SO
Vind: SO 28 km/h
Temperatur: 14°C
Daggpunkt: 9°C
Luftfuktighet: 72%
Barometer: 1016.3 hPa
Clouds: Övervägande molnigt
Visibility: 16 km
Cloud details: Övervägande molnigt 914 m
2023/02/05 03:47 KRHV 050347Z 13015KT 10SM BKN030 14/09 A3001
 
KOAK - Oakland, California, USA
Distance from station: NNV 50km
Uppdaterad: 2023-02-05 03:53
Genommulet
Genommulet
 Vind från S
Vind: S 20 km/h
Temperatur: 13°C
Daggpunkt: 11°C
Luftfuktighet: 88%
Barometer: 1016.3 hPa
Clouds: Genommulet
Visibility: 16 km
Cloud details: Delvis molnigt 671 m
Övervägande molnigt 853 m
Genommulet 1829 m
2023/02/05 02:53 KOAK 050253Z 19011KT 10SM SCT022 BKN028 OVC060 13/11 A3001 RMK AO2 PK WND 22029/0219 RAE22 SLP163 P0000 60001 T01330106 53008
KSQL - San Carlos Airpo, California, USA
Distance from station: NV 34km
Uppdaterad: 2023-02-05 03:47
Lätt regn, Övervägande molnigt
Lätt regn, Övervägande molnigt
 Vind från SSV
Vind: SSV 37 km/h, Vindby: 61 km/h
Temperatur: 14°C
Daggpunkt: 11°C
Luftfuktighet: 82%
Barometer: 1015.6 hPa
Summering: Lätt regn
Clouds: Övervägande molnigt
Visibility: 16 km
Cloud details: Övervägande molnigt 3353 m
2023/02/05 02:47 KSQL 050247Z 20020G33KT 10SM -RA BKN110 14/11 A2999
 
KSFO - San Francisco, California, USA
Distance from station: NV 49km
Uppdaterad: 2023-02-05 04:19
Regn, Mist, Genommulet
Regn, Mist, Genommulet
 Vind från SSV
Vind: SSV 44 km/h, Vindby: 57 km/h
Temperatur: 14°C
Daggpunkt: 12°C
Luftfuktighet: 88%
Barometer: 1015.6 hPa
Summering: Regn, Mist
Clouds: Genommulet
Visibility: 5 km
Cloud details: Few Clouds 274 m
Delvis molnigt 457 m
Genommulet 945 m
2023/02/05 03:19 KSFO 050319Z 21024G31KT 3SM RA BR FEW009 SCT015 OVC031 14/12 A2999 RMK AO2 PK WND 22031/0319 P0007 T01390117
KE16 - San Martin, California, USA
Distance from station: OSO 43km
Uppdaterad: 2023-02-05 04:35
Delvis molnigt
Delvis molnigt
 Vind från SV
Vind: SV 35 km/h, Vindby: 44 km/h
Temperatur: 14°C
Daggpunkt: 10°C
Luftfuktighet: 77%
Barometer: 1017.9 hPa
Clouds: Delvis molnigt
Visibility: 16 km
Cloud details: Few Clouds 671 m
Delvis molnigt 945 m
Delvis molnigt 1981 m
2023/02/05 03:35 KE16 050335Z AUTO 22019G24KT 10SM FEW022 SCT031 SCT065 14/10 A3006 RMK AO2 PWINO PNO
 
KWVI - Watsonville, California, USA
Distance from station: SSO 44km
Uppdaterad: 2023-02-05 03:53
Övervägande molnigt
Övervägande molnigt
 Vind från SSV
Vind: SSV 22 km/h, Vindby: 39 km/h
Temperatur: 13°C
Daggpunkt: 11°C
Luftfuktighet: 88%
Barometer: 1018.6 hPa
Clouds: Övervägande molnigt
Visibility: 16 km
Cloud details: Delvis molnigt 1128 m
Övervägande molnigt 1372 m
Övervägande molnigt 1829 m
2023/02/05 02:53 KWVI 050253Z AUTO 21012G21KT 10SM SCT037 BKN045 BKN060 13/11 A3008 RMK AO2 SLP186 60002 T01330111 51015
KHAF - Half Moon Bay, California, USA
Distance from station: VNV 50km
Uppdaterad: 2023-02-05 04:35
Mist, Genommulet
Mist, Genommulet
 Vind från S
Vind: S 37 km/h, Vindby: 46 km/h
Temperatur: 13°C
Daggpunkt: 12°C
Luftfuktighet: 94%
Barometer: 1016.3 hPa
Summering: Mist
Clouds: Genommulet
Visibility: 2 km
Cloud details: Genommulet 213 m
2023/02/05 03:35 KHAF 050335Z AUTO 19020G25KT 1SM BR OVC007 13/12 A3001 RMK AO2
 
KHWD - Hayward, California, USA
Distance from station: N 44km
Uppdaterad: 2023-02-05 03:54
Övervägande molnigt
Övervägande molnigt
 Vind från S
Vind: S 24 km/h, Vindby: 39 km/h
Temperatur: 14°C
Daggpunkt: 11°C
Luftfuktighet: 82%
Barometer: 1015.9 hPa
Clouds: Övervägande molnigt
Visibility: 16 km
Cloud details: Övervägande molnigt 853 m
2023/02/05 02:54 KHWD 050254Z 19013G21KT 10SM BKN028 14/11 A3000 RMK AO2 PK WND 18027/0203 RAB06E28 SLP169 P0000 60000 T01440106 53008
KLVK - Livermore, California, USA
Distance from station: NNO 51km
Uppdaterad: 2023-02-05 04:53
Genommulet
Genommulet
 Vind från SSV
Vind: SSV 19 km/h
Temperatur: 13°C
Daggpunkt: 9°C
Luftfuktighet: 77%
Barometer: 1015.2 hPa
Clouds: Genommulet
Visibility: 16 km
Cloud details: Genommulet 1463 m
2023/02/05 03:53 KLVK 050353Z 20010KT 10SM OVC048 13/09 A2998 RMK AO2 SLP151 T01330094